General Aviation Weather

Text Reports

Enter one or more of the following location identifiers separated by a space:

Zip Code, Four-Character ICAO or Three-Character IATA airport codes.

METAR - Aviation Routine Weather Report
KFYG - Washington, Missouri
Updated at 11:55 PM GMT on June 30, 2015 (6:55 PM CDT):
METAR KFYG 302355Z AUTO 00000KT 8SM CLR 25/22 A2986 RMK AO2
TAF - Terminal Area Forecast
KFYG - Washington, Missouri
Updated at 11:55 PM GMT on June 30, 2015 (6:55 PM CDT):
No TAF is currently available for this location.
Decoded:
No decoded TAF is available.
PIREP - Pilot Weather Report
KFYG - Washington, Missouri
Updated at 11:55 PM GMT on June 30, 2015 (6:55 PM CDT):
No PIREP is currently available for this location.
AIRMET - Airmens Meteorological Information
KFYG - Washington, Missouri
Updated at 11:55 PM GMT on June 30, 2015 (6:55 PM CDT):
No AIRMET is currently available for this location.
SIGMET - Significant Meteorological Information
KFYG - Washington, Missouri
Updated at 11:55 PM GMT on June 30, 2015 (6:55 PM CDT):
No SIGMET is currently available for this location.
NOTAM - Notice to Airmen
KFYG - Washington, Missouri
Updated at 11:55 PM GMT on June 30, 2015 (6:55 PM CDT):
No NOTAM is currently available for this location.
Forecast Area
KFYG - Washington, Missouri
Updated at 11:55 PM GMT on June 30, 2015 (6:55 PM CDT):
No NOTAM is currently available for this location.
Aviation Weather Maps